sensor_id;sensor_type;location;lat;lon;timestamp;pressure;altitude;pressure_sealevel;temperature;humidity
9110;BME280;4590;51.462;6.692;2024-01-07T00:01:09;101373.94;;;3.94;76.83
9110;BME280;4590;51.462;6.692;2024-01-07T00:14:44;101383.34;;;3.86;76.61
9110;BME280;4590;51.462;6.692;2024-01-07T00:39:42;101393.56;;;3.79;76.70
9110;BME280;4590;51.462;6.692;2024-01-07T00:46:26;101403.97;;;3.82;76.28
9110;BME280;4590;51.462;6.692;2024-01-07T01:04:09;101410.19;;;3.66;75.29
9110;BME280;4590;51.462;6.692;2024-01-07T01:14:59;101422.59;;;3.74;76.01
9110;BME280;4590;51.462;6.692;2024-01-07T01:18:28;101423.34;;;3.69;75.16
9110;BME280;4590;51.462;6.692;2024-01-07T01:29:15;101439.94;;;3.84;75.68
9110;BME280;4590;51.462;6.692;2024-01-07T01:44:02;101460.19;;;3.60;75.52
9110;BME280;4590;51.462;6.692;2024-01-07T01:46:28;101459.72;;;3.51;75.02
9110;BME280;4590;51.462;6.692;2024-01-07T01:48:55;101460.19;;;3.48;75.53
9110;BME280;4590;51.462;6.692;2024-01-07T01:51:21;101462.69;;;3.50;75.19
9110;BME280;4590;51.462;6.692;2024-01-07T01:53:47;101467.31;;;3.49;75.62
9110;BME280;4590;51.462;6.692;2024-01-07T01:56:13;101470.13;;;3.55;74.86
9110;BME280;4590;51.462;6.692;2024-01-07T01:58:38;101463.28;;;3.52;75.19
9110;BME280;4590;51.462;6.692;2024-01-07T02:01:04;101468.94;;;3.50;75.54
9110;BME280;4590;51.462;6.692;2024-01-07T02:03:29;101467.66;;;3.53;75.10
9110;BME280;4590;51.462;6.692;2024-01-07T02:05:58;101476.88;;;3.52;75.58
9110;BME280;4590;51.462;6.692;2024-01-07T02:08:24;101489.53;;;3.46;75.44
9110;BME280;4590;51.462;6.692;2024-01-07T02:10:50;101472.25;;;3.52;75.67
9110;BME280;4590;51.462;6.692;2024-01-07T02:13:15;101484.22;;;3.51;75.54
9110;BME280;4590;51.462;6.692;2024-01-07T02:15:40;101487.75;;;3.52;74.98
9110;BME280;4590;51.462;6.692;2024-01-07T02:18:06;101482.56;;;3.50;75.15
9110;BME280;4590;51.462;6.692;2024-01-07T02:20:31;101484.56;;;3.55;75.09
9110;BME280;4590;51.462;6.692;2024-01-07T02:22:56;101487.88;;;3.57;75.37
9110;BME280;4590;51.462;6.692;2024-01-07T02:25:23;101484.91;;;3.59;75.13
9110;BME280;4590;51.462;6.692;2024-01-07T02:27:48;101486.31;;;3.61;75.37
9110;BME280;4590;51.462;6.692;2024-01-07T02:30:14;101489.59;;;3.63;75.07
9110;BME280;4590;51.462;6.692;2024-01-07T02:32:39;101491.50;;;3.63;75.13
9110;BME280;4590;51.462;6.692;2024-01-07T02:35:05;101490.13;;;3.60;75.08
9110;BME280;4590;51.462;6.692;2024-01-07T02:37:30;101495.91;;;3.52;75.53
9110;BME280;4590;51.462;6.692;2024-01-07T02:39:56;101491.06;;;3.54;75.34
9110;BME280;4590;51.462;6.692;2024-01-07T02:42:21;101493.78;;;3.54;75.64
9110;BME280;4590;51.462;6.692;2024-01-07T02:44:46;101499.94;;;3.49;75.98
9110;BME280;4590;51.462;6.692;2024-01-07T02:47:12;101499.00;;;3.56;75.24
9110;BME280;4590;51.462;6.692;2024-01-07T02:49:37;101496.03;;;3.57;75.27
9110;BME280;4590;51.462;6.692;2024-01-07T02:52:03;101505.09;;;3.63;75.46
9110;BME280;4590;51.462;6.692;2024-01-07T02:54:28;101504.88;;;3.64;75.53
9110;BME280;4590;51.462;6.692;2024-01-07T02:56:53;101507.28;;;3.61;75.46
9110;BME280;4590;51.462;6.692;2024-01-07T02:59:19;101515.75;;;3.64;75.51
9110;BME280;4590;51.462;6.692;2024-01-07T03:01:44;101510.31;;;3.64;75.34
9110;BME280;4590;51.462;6.692;2024-01-07T03:04:11;101513.03;;;3.64;75.16
9110;BME280;4590;51.462;6.692;2024-01-07T03:06:37;101521.69;;;3.61;75.68
9110;BME280;4590;51.462;6.692;2024-01-07T03:09:02;101521.59;;;3.56;75.28
9110;BME280;4590;51.462;6.692;2024-01-07T03:11:28;101515.31;;;3.56;75.33
9110;BME280;4590;51.462;6.692;2024-01-07T03:13:53;101525.97;;;3.57;74.87
9110;BME280;4590;51.462;6.692;2024-01-07T03:16:22;101522.06;;;3.53;75.16
9110;BME280;4590;51.462;6.692;2024-01-07T03:18:48;101521.25;;;3.52;75.48
9110;BME280;4590;51.462;6.692;2024-01-07T03:21:20;101532.00;;;3.47;75.23
9110;BME280;4590;51.462;6.692;2024-01-07T03:23:46;101529.78;;;3.44;75.29
9110;BME280;4590;51.462;6.692;2024-01-07T03:26:12;101539.72;;;3.39;75.29
9110;BME280;4590;51.462;6.692;2024-01-07T03:32:20;101540.56;;;3.28;74.67
9110;BME280;4590;51.462;6.692;2024-01-07T03:35:20;101544.47;;;3.20;74.80
9110;BME280;4590;51.462;6.692;2024-01-07T03:38:58;101543.66;;;3.20;74.47
9110;BME280;4590;51.462;6.692;2024-01-07T03:52:45;101555.38;;;2.97;74.86
9110;BME280;4590;51.462;6.692;2024-01-07T03:56:13;101566.56;;;3.00;74.96
9110;BME280;4590;51.462;6.692;2024-01-07T03:59:48;101561.13;;;3.00;74.77
9110;BME280;4590;51.462;6.692;2024-01-07T04:07:24;101565.53;;;3.01;74.50
9110;BME280;4590;51.462;6.692;2024-01-07T04:14:03;101569.91;;;2.91;73.92
9110;BME280;4590;51.462;6.692;2024-01-07T04:24:57;101577.44;;;2.65;74.79
9110;BME280;4590;51.462;6.692;2024-01-07T04:49:22;101602.19;;;2.45;74.22
9110;BME280;4590;51.462;6.692;2024-01-07T04:52:30;101604.25;;;2.62;74.48
9110;BME280;4590;51.462;6.692;2024-01-07T04:59:56;101610.97;;;2.59;73.59
9110;BME280;4590;51.462;6.692;2024-01-07T05:03:12;101617.44;;;2.58;74.10
9110;BME280;4590;51.462;6.692;2024-01-07T05:06:32;101623.25;;;2.62;74.22
9110;BME280;4590;51.462;6.692;2024-01-07T05:13:13;101624.41;;;2.54;73.97
9110;BME280;4590;51.462;6.692;2024-01-07T05:16:41;101632.22;;;2.51;74.51
9110;BME280;4590;51.462;6.692;2024-01-07T05:26:46;101638.13;;;2.59;73.68
9110;BME280;4590;51.462;6.692;2024-01-07T05:30:38;101652.53;;;2.60;73.76
9110;BME280;4590;51.462;6.692;2024-01-07T05:33:58;101659.84;;;2.47;74.04
9110;BME280;4590;51.462;6.692;2024-01-07T05:37:22;101661.25;;;2.50;74.55
9110;BME280;4590;51.462;6.692;2024-01-07T05:44:08;101676.72;;;2.50;73.90
9110;BME280;4590;51.462;6.692;2024-01-07T05:47:32;101664.94;;;2.56;74.51
9110;BME280;4590;51.462;6.692;2024-01-07T05:51:11;101678.84;;;2.47;73.94
9110;BME280;4590;51.462;6.692;2024-01-07T05:54:52;101684.06;;;2.49;74.59
9110;BME280;4590;51.462;6.692;2024-01-07T05:58:05;101683.72;;;2.57;73.93
9110;BME280;4590;51.462;6.692;2024-01-07T06:01:04;101688.00;;;2.65;74.65
9110;BME280;4590;51.462;6.692;2024-01-07T06:08:23;101699.09;;;2.63;73.50
9110;BME280;4590;51.462;6.692;2024-01-07T06:22:13;101711.28;;;2.42;73.95
9110;BME280;4590;51.462;6.692;2024-01-07T06:40:02;101730.53;;;2.41;74.20
9110;BME280;4590;51.462;6.692;2024-01-07T06:43:25;101732.63;;;2.39;74.24
9110;BME280;4590;51.462;6.692;2024-01-07T06:56:18;101764.56;;;2.43;74.29
9110;BME280;4590;51.462;6.692;2024-01-07T06:59:49;101753.84;;;2.49;73.56
9110;BME280;4590;51.462;6.692;2024-01-07T07:10:50;101778.38;;;2.42;73.51
9110;BME280;4590;51.462;6.692;2024-01-07T07:13:46;101774.09;;;2.34;73.36
9110;BME280;4590;51.462;6.692;2024-01-07T07:17:14;101780.84;;;2.43;73.49
9110;BME280;4590;51.462;6.692;2024-01-07T07:20:56;101790.28;;;2.41;72.82
9110;BME280;4590;51.462;6.692;2024-01-07T07:31:16;101816.94;;;2.32;73.52
9110;BME280;4590;51.462;6.692;2024-01-07T07:38:09;101824.69;;;2.29;73.08
9110;BME280;4590;51.462;6.692;2024-01-07T07:41:52;101837.22;;;2.30;73.10
9110;BME280;4590;51.462;6.692;2024-01-07T07:45:27;101838.44;;;2.34;73.47
9110;BME280;4590;51.462;6.692;2024-01-07T07:49:01;101850.19;;;2.28;73.71
9110;BME280;4590;51.462;6.692;2024-01-07T08:06:37;101879.22;;;2.27;72.63
9110;BME280;4590;51.462;6.692;2024-01-07T08:13:41;101892.16;;;2.32;71.71
9110;BME280;4590;51.462;6.692;2024-01-07T09:18:36;101971.22;;;2.17;71.03
9110;BME280;4590;51.462;6.692;2024-01-07T09:21:01;101963.75;;;2.13;70.06
9110;BME280;4590;51.462;6.692;2024-01-07T09:23:28;101975.84;;;2.17;71.07
9110;BME280;4590;51.462;6.692;2024-01-07T09:26:34;101979.53;;;2.22;70.62
9110;BME280;4590;51.462;6.692;2024-01-07T09:36:40;102000.09;;;2.11;69.94
9110;BME280;4590;51.462;6.692;2024-01-07T10:01:04;102020.19;;;2.04;68.81
9110;BME280;4590;51.462;6.692;2024-01-07T10:07:41;102036.31;;;1.92;69.28
9110;BME280;4590;51.462;6.692;2024-01-07T10:10:14;102035.50;;;1.92;68.94
9110;BME280;4590;51.462;6.692;2024-01-07T10:12:40;102045.09;;;1.94;69.14
9110;BME280;4590;51.462;6.692;2024-01-07T10:15:05;102028.88;;;1.88;68.95
9110;BME280;4590;51.462;6.692;2024-01-07T10:17:31;102033.78;;;1.59;68.01
9110;BME280;4590;51.462;6.692;2024-01-07T10:19:56;102033.66;;;1.86;68.80
9110;BME280;4590;51.462;6.692;2024-01-07T10:22:22;102043.91;;;1.84;68.45
9110;BME280;4590;51.462;6.692;2024-01-07T10:24:47;102037.00;;;1.88;68.33
9110;BME280;4590;51.462;6.692;2024-01-07T10:27:14;102034.94;;;1.83;68.37
9110;BME280;4590;51.462;6.692;2024-01-07T10:37:21;102034.66;;;1.91;67.70
9110;BME280;4590;51.462;6.692;2024-01-07T10:41:03;102043.25;;;1.88;68.42
9110;BME280;4590;51.462;6.692;2024-01-07T11:05:52;102060.06;;;1.65;66.34
9110;BME280;4590;51.462;6.692;2024-01-07T11:27:25;102066.50;;;1.71;66.56
9110;BME280;4590;51.462;6.692;2024-01-07T11:30:59;102073.81;;;1.70;66.07
9110;BME280;4590;51.462;6.692;2024-01-07T11:37:42;102076.06;;;1.73;65.91
9110;BME280;4590;51.462;6.692;2024-01-07T11:41:17;102079.41;;;1.82;65.90
9110;BME280;4590;51.462;6.692;2024-01-07T11:55:39;102083.78;;;1.76;64.46
9110;BME280;4590;51.462;6.692;2024-01-07T12:09:32;102100.28;;;1.82;63.60
9110;BME280;4590;51.462;6.692;2024-01-07T12:22:17;102110.78;;;1.58;62.45
9110;BME280;4590;51.462;6.692;2024-01-07T12:24:44;102121.00;;;1.63;61.82
9110;BME280;4590;51.462;6.692;2024-01-07T12:27:09;102113.28;;;1.66;62.12
9110;BME280;4590;51.462;6.692;2024-01-07T12:29:36;102108.88;;;1.72;62.02
9110;BME280;4590;51.462;6.692;2024-01-07T12:32:01;102103.47;;;1.72;61.81
9110;BME280;4590;51.462;6.692;2024-01-07T12:34:27;102119.75;;;1.65;62.40
9110;BME280;4590;51.462;6.692;2024-01-07T12:36:53;102115.56;;;1.69;61.78
9110;BME280;4590;51.462;6.692;2024-01-07T12:39:20;102123.66;;;1.76;61.73
9110;BME280;4590;51.462;6.692;2024-01-07T12:41:45;102138.28;;;1.82;61.98
9110;BME280;4590;51.462;6.692;2024-01-07T12:44:12;102132.84;;;1.82;62.33
9110;BME280;4590;51.462;6.692;2024-01-07T12:46:37;102132.84;;;1.75;62.06
9110;BME280;4590;51.462;6.692;2024-01-07T12:49:02;102139.94;;;1.83;62.12
9110;BME280;4590;51.462;6.692;2024-01-07T12:51:28;102142.88;;;1.74;62.06
9110;BME280;4590;51.462;6.692;2024-01-07T12:53:53;102150.22;;;1.67;61.76
9110;BME280;4590;51.462;6.692;2024-01-07T12:56:19;102157.31;;;1.68;62.35
9110;BME280;4590;51.462;6.692;2024-01-07T12:58:44;102157.53;;;1.60;62.08
9110;BME280;4590;51.462;6.692;2024-01-07T13:01:10;102144.59;;;1.62;62.29
9110;BME280;4590;51.462;6.692;2024-01-07T13:03:36;102150.00;;;1.69;62.14
9110;BME280;4590;51.462;6.692;2024-01-07T13:06:01;102165.44;;;1.68;62.35
9110;BME280;4590;51.462;6.692;2024-01-07T13:08:27;102162.31;;;1.58;61.93
9110;BME280;4590;51.462;6.692;2024-01-07T13:10:53;102167.97;;;1.63;62.61
9110;BME280;4590;51.462;6.692;2024-01-07T13:13:19;102164.63;;;1.61;62.61
9110;BME280;4590;51.462;6.692;2024-01-07T13:15:44;102172.75;;;1.61;62.13
9110;BME280;4590;51.462;6.692;2024-01-07T13:18:10;102173.84;;;1.54;62.39
9110;BME280;4590;51.462;6.692;2024-01-07T13:20:37;102180.47;;;1.58;61.71
9110;BME280;4590;51.462;6.692;2024-01-07T13:23:04;102184.28;;;1.50;61.78
9110;BME280;4590;51.462;6.692;2024-01-07T13:25:29;102187.41;;;1.47;60.80
9110;BME280;4590;51.462;6.692;2024-01-07T13:27:55;102180.72;;;1.43;60.59
9110;BME280;4590;51.462;6.692;2024-01-07T13:30:20;102192.41;;;1.50;60.63
9110;BME280;4590;51.462;6.692;2024-01-07T13:32:45;102185.94;;;1.45;60.50
9110;BME280;4590;51.462;6.692;2024-01-07T13:35:10;102186.56;;;1.47;59.85
9110;BME280;4590;51.462;6.692;2024-01-07T13:37:38;102195.94;;;1.44;59.85
9110;BME280;4590;51.462;6.692;2024-01-07T13:40:03;102207.84;;;1.43;59.54
9110;BME280;4590;51.462;6.692;2024-01-07T13:42:29;102203.47;;;1.35;58.95
9110;BME280;4590;51.462;6.692;2024-01-07T13:44:55;102202.00;;;1.33;59.24
9110;BME280;4590;51.462;6.692;2024-01-07T13:47:20;102210.16;;;1.33;58.58
9110;BME280;4590;51.462;6.692;2024-01-07T13:49:46;102200.38;;;1.25;58.34
9110;BME280;4590;51.462;6.692;2024-01-07T13:52:12;102195.56;;;1.21;58.43
9110;BME280;4590;51.462;6.692;2024-01-07T13:54:37;102218.69;;;1.30;58.39
9110;BME280;4590;51.462;6.692;2024-01-07T13:57:03;102210.59;;;1.23;58.30
9110;BME280;4590;51.462;6.692;2024-01-07T13:59:28;102202.44;;;1.30;58.65
9110;BME280;4590;51.462;6.692;2024-01-07T14:01:54;102218.50;;;1.25;57.89
9110;BME280;4590;51.462;6.692;2024-01-07T14:04:20;102208.88;;;1.29;58.07
9110;BME280;4590;51.462;6.692;2024-01-07T14:06:45;102210.13;;;1.26;58.12
9110;BME280;4590;51.462;6.692;2024-01-07T14:09:11;102221.63;;;1.22;57.79
9110;BME280;4590;51.462;6.692;2024-01-07T14:11:37;102211.41;;;1.30;58.05
9110;BME280;4590;51.462;6.692;2024-01-07T14:14:02;102219.75;;;1.29;57.78
9110;BME280;4590;51.462;6.692;2024-01-07T14:16:28;102231.44;;;1.36;58.12
9110;BME280;4590;51.462;6.692;2024-01-07T14:18:53;102224.75;;;1.38;58.21
9110;BME280;4590;51.462;6.692;2024-01-07T14:21:19;102235.41;;;1.40;57.57
9110;BME280;4590;51.462;6.692;2024-01-07T14:23:44;102232.25;;;1.30;57.37
9110;BME280;4590;51.462;6.692;2024-01-07T14:26:09;102230.81;;;1.34;57.54
9110;BME280;4590;51.462;6.692;2024-01-07T14:28:35;102236.84;;;1.36;56.96
9110;BME280;4590;51.462;6.692;2024-01-07T14:31:01;102243.94;;;1.37;57.03
9110;BME280;4590;51.462;6.692;2024-01-07T14:33:26;102261.25;;;1.29;56.53
9110;BME280;4590;51.462;6.692;2024-01-07T14:35:52;102252.28;;;1.29;56.84
9110;BME280;4590;51.462;6.692;2024-01-07T14:38:17;102258.94;;;1.26;56.32
9110;BME280;4590;51.462;6.692;2024-01-07T14:40:43;102252.91;;;1.31;56.90
9110;BME280;4590;51.462;6.692;2024-01-07T14:43:12;102248.53;;;1.36;56.91
9110;BME280;4590;51.462;6.692;2024-01-07T14:45:37;102256.47;;;1.38;56.75
9110;BME280;4590;51.462;6.692;2024-01-07T14:48:03;102254.19;;;1.42;57.27
9110;BME280;4590;51.462;6.692;2024-01-07T14:50:28;102258.97;;;1.46;57.72
9110;BME280;4590;51.462;6.692;2024-01-07T14:52:54;102277.09;;;1.46;57.36
9110;BME280;4590;51.462;6.692;2024-01-07T14:55:19;102263.34;;;1.47;56.83
9110;BME280;4590;51.462;6.692;2024-01-07T14:57:44;102298.59;;;1.34;56.17
9110;BME280;4590;51.462;6.692;2024-01-07T15:00:10;102289.44;;;1.42;56.71
9110;BME280;4590;51.462;6.692;2024-01-07T15:02:35;102294.00;;;1.34;56.19
9110;BME280;4590;51.462;6.692;2024-01-07T15:05:01;102307.78;;;1.33;55.93
9110;BME280;4590;51.462;6.692;2024-01-07T15:07:26;102297.56;;;1.35;55.91
9110;BME280;4590;51.462;6.692;2024-01-07T15:09:51;102293.81;;;1.36;55.96
9110;BME280;4590;51.462;6.692;2024-01-07T15:12:17;102308.19;;;1.36;55.79
9110;BME280;4590;51.462;6.692;2024-01-07T15:14:43;102296.75;;;1.41;56.49
9110;BME280;4590;51.462;6.692;2024-01-07T15:38:28;102337.00;;;1.37;55.55
9110;BME280;4590;51.462;6.692;2024-01-07T16:53:46;102412.16;;;1.63;56.80
9110;BME280;4590;51.462;6.692;2024-01-07T16:56:11;102420.06;;;1.58;56.98
9110;BME280;4590;51.462;6.692;2024-01-07T16:58:37;102419.63;;;1.48;56.95
9110;BME280;4590;51.462;6.692;2024-01-07T17:01:02;102430.69;;;1.47;57.69
9110;BME280;4590;51.462;6.692;2024-01-07T17:03:28;102429.47;;;1.56;57.27
9110;BME280;4590;51.462;6.692;2024-01-07T17:05:53;102424.41;;;1.46;58.10
9110;BME280;4590;51.462;6.692;2024-01-07T17:08:19;102437.41;;;1.57;57.76
9110;BME280;4590;51.462;6.692;2024-01-07T17:10:45;102430.31;;;1.56;57.83
9110;BME280;4590;51.462;6.692;2024-01-07T17:13:11;102430.50;;;1.55;57.98
9110;BME280;4590;51.462;6.692;2024-01-07T17:15:36;102425.47;;;1.45;58.95
9110;BME280;4590;51.462;6.692;2024-01-07T17:18:03;102434.91;;;1.56;58.66
9110;BME280;4590;51.462;6.692;2024-01-07T17:20:29;102438.84;;;1.60;59.30
9110;BME280;4590;51.462;6.692;2024-01-07T17:22:54;102442.19;;;1.62;58.66
9110;BME280;4590;51.462;6.692;2024-01-07T17:25:19;102443.03;;;1.62;59.28
9110;BME280;4590;51.462;6.692;2024-01-07T17:27:45;102439.69;;;1.60;59.58
9110;BME280;4590;51.462;6.692;2024-01-07T17:30:11;102452.59;;;1.58;59.77
9110;BME280;4590;51.462;6.692;2024-01-07T17:32:36;102458.06;;;1.65;59.54
9110;BME280;4590;51.462;6.692;2024-01-07T17:35:02;102463.03;;;1.48;60.24
9110;BME280;4590;51.462;6.692;2024-01-07T17:37:27;102460.75;;;1.52;60.39
9110;BME280;4590;51.462;6.692;2024-01-07T17:39:52;102462.44;;;1.53;60.63
9110;BME280;4590;51.462;6.692;2024-01-07T17:42:18;102463.03;;;1.48;60.39
9110;BME280;4590;51.462;6.692;2024-01-07T17:44:43;102468.03;;;1.45;60.64
9110;BME280;4590;51.462;6.692;2024-01-07T17:47:09;102476.34;;;1.43;60.68
9110;BME280;4590;51.462;6.692;2024-01-07T17:49:34;102466.78;;;1.47;61.20
9110;BME280;4590;51.462;6.692;2024-01-07T17:51:59;102482.78;;;1.29;61.35
9110;BME280;4590;51.462;6.692;2024-01-07T17:54:24;102471.97;;;1.35;61.43
9110;BME280;4590;51.462;6.692;2024-01-07T17:56:50;102469.06;;;1.37;60.65
9110;BME280;4590;51.462;6.692;2024-01-07T17:59:16;102485.31;;;1.37;60.99
9110;BME280;4590;51.462;6.692;2024-01-07T18:01:45;102493.41;;;1.30;61.59
9110;BME280;4590;51.462;6.692;2024-01-07T18:04:11;102492.59;;;1.30;61.37
9110;BME280;4590;51.462;6.692;2024-01-07T18:06:36;102498.00;;;1.30;61.32
9110;BME280;4590;51.462;6.692;2024-01-07T18:09:01;102488.63;;;1.32;61.27
9110;BME280;4590;51.462;6.692;2024-01-07T18:11:26;102508.41;;;1.26;62.19
9110;BME280;4590;51.462;6.692;2024-01-07T18:13:52;102501.94;;;1.27;62.02
9110;BME280;4590;51.462;6.692;2024-01-07T18:16:17;102503.44;;;1.30;62.13
9110;BME280;4590;51.462;6.692;2024-01-07T18:18:42;102506.97;;;1.24;62.05
9110;BME280;4590;51.462;6.692;2024-01-07T18:21:07;102510.94;;;1.28;61.49
9110;BME280;4590;51.462;6.692;2024-01-07T18:23:33;102515.75;;;1.26;61.52
9110;BME280;4590;51.462;6.692;2024-01-07T18:25:58;102514.63;;;1.14;61.66
9110;BME280;4590;51.462;6.692;2024-01-07T18:28:23;102522.78;;;1.20;61.45
9110;BME280;4590;51.462;6.692;2024-01-07T18:30:48;102511.91;;;1.14;61.64
9110;BME280;4590;51.462;6.692;2024-01-07T18:33:14;102517.72;;;1.11;61.98
9110;BME280;4590;51.462;6.692;2024-01-07T18:35:39;102514.59;;;1.07;62.01
9110;BME280;4590;51.462;6.692;2024-01-07T18:38:06;102522.28;;;1.03;62.18
9110;BME280;4590;51.462;6.692;2024-01-07T18:40:32;102538.50;;;0.97;62.58
9110;BME280;4590;51.462;6.692;2024-01-07T18:42:58;102529.34;;;0.98;62.44
9110;BME280;4590;51.462;6.692;2024-01-07T18:45:26;102525.38;;;1.00;62.23
9110;BME280;4590;51.462;6.692;2024-01-07T18:47:51;102521.44;;;1.03;62.75
9110;BME280;4590;51.462;6.692;2024-01-07T18:50:17;102549.75;;;0.94;62.68
9110;BME280;4590;51.462;6.692;2024-01-07T18:52:44;102525.78;;;0.97;62.77
9110;BME280;4590;51.462;6.692;2024-01-07T18:55:09;102533.72;;;0.99;62.25
9110;BME280;4590;51.462;6.692;2024-01-07T18:57:35;102532.88;;;0.98;62.20
9110;BME280;4590;51.462;6.692;2024-01-07T19:00:01;102541.63;;;0.94;62.88
9110;BME280;4590;51.462;6.692;2024-01-07T19:02:28;102537.66;;;0.96;62.37
9110;BME280;4590;51.462;6.692;2024-01-07T19:04:53;102537.25;;;0.99;62.53
9110;BME280;4590;51.462;6.692;2024-01-07T19:07:19;102535.56;;;0.92;62.38
9110;BME280;4590;51.462;6.692;2024-01-07T19:09:44;102539.75;;;0.94;61.96
9110;BME280;4590;51.462;6.692;2024-01-07T19:12:09;102542.41;;;0.88;62.16
9110;BME280;4590;51.462;6.692;2024-01-07T19:14:36;102538.91;;;0.94;61.92
9110;BME280;4590;51.462;6.692;2024-01-07T19:17:02;102548.09;;;0.93;62.01
9110;BME280;4590;51.462;6.692;2024-01-07T19:19:28;102545.19;;;0.94;61.71
9110;BME280;4590;51.462;6.692;2024-01-07T19:21:53;102550.69;;;0.80;61.22
9110;BME280;4590;51.462;6.692;2024-01-07T19:24:19;102559.50;;;0.88;61.61
9110;BME280;4590;51.462;6.692;2024-01-07T19:26:44;102554.94;;;0.89;61.77
9110;BME280;4590;51.462;6.692;2024-01-07T19:29:10;102555.06;;;0.81;61.34
9110;BME280;4590;51.462;6.692;2024-01-07T19:31:37;102555.72;;;0.83;61.32
9110;BME280;4590;51.462;6.692;2024-01-07T19:34:02;102552.34;;;0.81;61.45
9110;BME280;4590;51.462;6.692;2024-01-07T19:36:28;102560.28;;;0.82;61.43
9110;BME280;4590;51.462;6.692;2024-01-07T19:38:54;102557.34;;;0.77;61.76
9110;BME280;4590;51.462;6.692;2024-01-07T19:41:24;102551.09;;;0.77;61.76
9110;BME280;4590;51.462;6.692;2024-01-07T19:43:51;102557.38;;;0.84;61.53
9110;BME280;4590;51.462;6.692;2024-01-07T19:49:06;102562.81;;;0.84;62.09
9110;BME280;4590;51.462;6.692;2024-01-07T19:51:31;102561.50;;;0.80;61.75
9110;BME280;4590;51.462;6.692;2024-01-07T19:53:57;102566.53;;;0.83;62.01
9110;BME280;4590;51.462;6.692;2024-01-07T19:56:22;102564.47;;;0.85;62.04
9110;BME280;4590;51.462;6.692;2024-01-07T19:58:48;102578.47;;;0.88;62.24
9110;BME280;4590;51.462;6.692;2024-01-07T20:01:14;102575.00;;;0.94;62.50
9110;BME280;4590;51.462;6.692;2024-01-07T20:03:39;102573.53;;;0.98;62.25
9110;BME280;4590;51.462;6.692;2024-01-07T20:28:01;102572.03;;;0.61;60.60
9110;BME280;4590;51.462;6.692;2024-01-07T20:31:31;102582.25;;;0.66;60.83
9110;BME280;4590;51.462;6.692;2024-01-07T21:18:41;102593.88;;;0.60;61.30
9110;BME280;4590;51.462;6.692;2024-01-07T21:51:09;102611.56;;;0.56;60.08
9110;BME280;4590;51.462;6.692;2024-01-07T21:53:34;102606.13;;;0.56;59.70
9110;BME280;4590;51.462;6.692;2024-01-07T21:56:00;102598.13;;;0.48;58.17
9110;BME280;4590;51.462;6.692;2024-01-07T21:58:25;102620.44;;;0.50;58.61
9110;BME280;4590;51.462;6.692;2024-01-07T22:00:50;102630.63;;;0.48;57.99
9110;BME280;4590;51.462;6.692;2024-01-07T22:03:15;102615.75;;;0.37;58.15
9110;BME280;4590;51.462;6.692;2024-01-07T22:05:41;102605.00;;;0.44;57.96
9110;BME280;4590;51.462;6.692;2024-01-07T22:08:06;102611.09;;;0.52;58.14
9110;BME280;4590;51.462;6.692;2024-01-07T22:13:06;102611.06;;;0.46;57.88
9110;BME280;4590;51.462;6.692;2024-01-07T22:15:32;102612.50;;;0.48;57.76
9110;BME280;4590;51.462;6.692;2024-01-07T22:17:57;102617.69;;;0.43;57.25
9110;BME280;4590;51.462;6.692;2024-01-07T22:20:22;102613.34;;;0.49;57.79
9110;BME280;4590;51.462;6.692;2024-01-07T22:22:48;102616.50;;;0.52;57.73
9110;BME280;4590;51.462;6.692;2024-01-07T22:25:13;102614.44;;;0.54;57.57
9110;BME280;4590;51.462;6.692;2024-01-07T22:27:39;102610.25;;;0.52;57.66
9110;BME280;4590;51.462;6.692;2024-01-07T22:30:05;102615.94;;;0.57;57.54
9110;BME280;4590;51.462;6.692;2024-01-07T22:32:30;102627.31;;;0.46;57.64
9110;BME280;4590;51.462;6.692;2024-01-07T22:34:56;102626.50;;;0.52;58.33
9110;BME280;4590;51.462;6.692;2024-01-07T22:37:21;102622.13;;;0.51;58.71
9110;BME280;4590;51.462;6.692;2024-01-07T22:39:47;102626.69;;;0.50;59.16
9110;BME280;4590;51.462;6.692;2024-01-07T22:42:13;102620.06;;;0.53;59.14
9110;BME280;4590;51.462;6.692;2024-01-07T22:44:39;102623.31;;;0.42;58.50
9110;BME280;4590;51.462;6.692;2024-01-07T22:47:04;102626.28;;;0.47;58.83
9110;BME280;4590;51.462;6.692;2024-01-07T22:49:30;102630.84;;;0.46;58.51
9110;BME280;4590;51.462;6.692;2024-01-07T22:51:55;102626.06;;;0.48;58.88
9110;BME280;4590;51.462;6.692;2024-01-07T22:54:22;102640.00;;;0.45;58.65
9110;BME280;4590;51.462;6.692;2024-01-07T22:56:48;102634.78;;;0.44;58.29
9110;BME280;4590;51.462;6.692;2024-01-07T22:59:17;102637.94;;;0.47;58.77
9110;BME280;4590;51.462;6.692;2024-01-07T23:01:42;102641.22;;;0.43;58.09
9110;BME280;4590;51.462;6.692;2024-01-07T23:04:08;102639.22;;;0.51;58.41
9110;BME280;4590;51.462;6.692;2024-01-07T23:06:34;102637.34;;;0.30;58.24
9110;BME280;4590;51.462;6.692;2024-01-07T23:09:01;102644.69;;;0.37;58.13
9110;BME280;4590;51.462;6.692;2024-01-07T23:11:26;102649.72;;;0.40;57.83
9110;BME280;4590;51.462;6.692;2024-01-07T23:13:51;102647.53;;;0.28;57.93
9110;BME280;4590;51.462;6.692;2024-01-07T23:16:17;102664.53;;;0.22;58.23
9110;BME280;4590;51.462;6.692;2024-01-07T23:18:42;102659.03;;;0.30;57.98
9110;BME280;4590;51.462;6.692;2024-01-07T23:21:08;102656.31;;;0.30;57.98
9110;BME280;4590;51.462;6.692;2024-01-07T23:23:34;102643.63;;;0.31;57.38
9110;BME280;4590;51.462;6.692;2024-01-07T23:25:59;102651.50;;;0.32;57.72
9110;BME280;4590;51.462;6.692;2024-01-07T23:28:25;102646.88;;;0.26;58.14
9110;BME280;4590;51.462;6.692;2024-01-07T23:30:50;102656.69;;;0.27;57.96
9110;BME280;4590;51.462;6.692;2024-01-07T23:33:15;102648.94;;;0.24;57.74
9110;BME280;4590;51.462;6.692;2024-01-07T23:35:41;102656.50;;;0.29;57.96
9110;BME280;4590;51.462;6.692;2024-01-07T23:38:06;102667.38;;;0.35;57.94
9110;BME280;4590;51.462;6.692;2024-01-07T23:40:31;102662.28;;;0.26;57.12
9110;BME280;4590;51.462;6.692;2024-01-07T23:42:56;102674.06;;;0.18;56.21
9110;BME280;4590;51.462;6.692;2024-01-07T23:45:22;102666.22;;;0.23;56.80
9110;BME280;4590;51.462;6.692;2024-01-07T23:47:47;102674.16;;;0.25;56.34
9110;BME280;4590;51.462;6.692;2024-01-07T23:50:12;102677.53;;;0.12;56.34
9110;BME280;4590;51.462;6.692;2024-01-07T23:52:39;102678.09;;;0.08;55.70
9110;BME280;4590;51.462;6.692;2024-01-07T23:55:04;102675.56;;;0.21;56.37
9110;BME280;4590;51.462;6.692;2024-01-07T23:57:30;102691.44;;;0.09;55.97
9110;BME280;4590;51.462;6.692;2024-01-07T23:59:55;102684.63;;;0.13;56.34
